地図

経路データ

SID SEASON NUMBER BASIN SUBBASIN NAME ISO_TIME NATURE LAT LON WMO_WIND WMO_PRES WMO_AGENCY TRACK_TYPE DIST2LAND LANDFALL IFLAG USA_AGENCY USA_ATCF_ID USA_LAT USA_LON USA_RECORD USA_STATUS USA_WIND USA_PRES USA_SSHS USA_R34_NE USA_R34_SE USA_R34_SW USA_R34_NW USA_R50_NE USA_R50_SE USA_R50_SW USA_R50_NW USA_R64_NE USA_R64_SE USA_R64_SW USA_R64_NW USA_POCI USA_ROCI USA_RMW USA_EYE TOKYO_LAT TOKYO_LON TOKYO_GRADE TOKYO_WIND TOKYO_PRES TOKYO_R50_DIR TOKYO_R50_LONG TOKYO_R50_SHORT TOKYO_R30_DIR TOKYO_R30_LONG TOKYO_R30_SHORT TOKYO_LAND CMA_LAT CMA_LON CMA_CAT CMA_WIND CMA_PRES HKO_LAT HKO_LON HKO_CAT HKO_WIND HKO_PRES NEWDELHI_LAT NEWDELHI_LON NEWDELHI_GRADE NEWDELHI_WIND NEWDELHI_PRES NEWDELHI_CI NEWDELHI_DP NEWDELHI_POCI REUNION_LAT REUNION_LON REUNION_TYPE REUNION_WIND REUNION_PRES REUNION_TNUM REUNION_CI REUNION_RMW REUNION_R34_NE REUNION_R34_SE REUNION_R34_SW REUNION_R34_NW REUNION_R50_NE REUNION_R50_SE REUNION_R50_SW REUNION_R50_NW REUNION_R64_NE REUNION_R64_SE REUNION_R64_SW REUNION_R64_NW BOM_LAT BOM_LON BOM_TYPE BOM_WIND BOM_PRES BOM_TNUM BOM_CI BOM_RMW BOM_R34_NE BOM_R34_SE BOM_R34_SW BOM_R34_NW BOM_R50_NE BOM_R50_SE BOM_R50_SW BOM_R50_NW BOM_R64_NE BOM_R64_SE BOM_R64_SW BOM_R64_NW BOM_ROCI BOM_POCI BOM_EYE BOM_POS_METHOD BOM_PRES_METHOD NADI_LAT NADI_LON NADI_CAT NADI_WIND NADI_PRES WELLINGTON_LAT WELLINGTON_LON WELLINGTON_WIND WELLINGTON_PRES DS824_LAT DS824_LON DS824_STAGE DS824_WIND DS824_PRES TD9636_LAT TD9636_LON TD9636_STAGE TD9636_WIND TD9636_PRES TD9635_LAT TD9635_LON TD9635_WIND TD9635_PRES TD9635_ROCI NEUMANN_LAT NEUMANN_LON NEUMANN_CLASS NEUMANN_WIND NEUMANN_PRES MLC_LAT MLC_LON MLC_CLASS MLC_WIND MLC_PRES USA_GUST BOM_GUST BOM_GUST_PER REUNION_GUST REUNION_GUST_PER USA_SEAHGT USA_SEARAD_NE USA_SEARAD_SE USA_SEARAD_SW USA_SEARAD_NW STORM_SPEED STORM_DIR
1956032S13133 1956 13 SI WA NOT_NAMED 1956-01-31 23:00:00 NR -13.3000 132.800 main 0 0 __________O___ -1 -13.3000 132.800 7 25 302
1956032S13133 1956 13 SI WA NOT_NAMED 1956-01-31 23:30:00 NR -13.1922 132.621 1003 bom main 0 0 ______O___P___ -1 -13.0000 132.300 1003 -13.2883 132.782 7 14 302
1956032S13133 1956 13 SI WA NOT_NAMED 1956-02-01 00:00:00 TS -13.1769 132.597 main 0 0 O_____P__OP___ jtwc_sh SH171956 -13.3000 132.800 -1 -12.9926 132.291 -13.0000 132.300 TC 25 1003 -13.2767 132.763 7 3 306
1956032S13133 1956 13 SI WA NOT_NAMED 1956-02-01 03:00:00 TS -13.0994 132.495 main 0 0 P_____P__PP___ SH171956 -13.1875 132.630 -1 -12.9478 132.241 -12.9375 132.287 TC -13.2060 132.655 7 2 310
1956032S13133 1956 13 SI WA NOT_NAMED 1956-02-01 06:00:00 TS -13.0212 132.400 main 0 0 O_____P__PP___ jtwc_sh SH171956 -13.1000 132.500 -1 -12.9011 132.194 -12.8750 132.275 TC -13.1327 132.551 7 2 313
1956032S13133 1956 13 SI WA NOT_NAMED 1956-02-01 09:00:00 TS -12.9636 132.349 main 0 0 P_____P__PP___ SH171956 -13.0500 132.435 -1 -12.8506 132.156 -12.8125 132.262 TC -13.0551 132.456 7 1 320
1956032S13133 1956 13 SI WA NOT_NAMED 1956-02-01 11:00:00 TS -12.9249 132.323 main 0 0 P_____P__PO___ SH171956 -13.0197 132.411 -1 -12.8140 132.136 -12.7708 132.254 TC -13.0000 132.400 7 1 332
1956032S13133 1956 13 SI WA NOT_NAMED 1956-02-01 12:00:00 TS -12.9032 132.311 main 0 0 O_____P__PP___ jtwc_sh SH171956 -13.0000 132.400 -1 -12.7947 132.129 -12.7500 132.250 TC -12.9712 132.374 7 2 329
1956032S13133 1956 13 SI WA NOT_NAMED 1956-02-01 15:00:00 TS -12.8229 132.272 main 0 0 P_____P__PP___ SH171956 -12.9075 132.350 -1 -12.7318 132.117 -12.6875 132.237 TC -12.8800 132.307 7 2 340
1956032S13133 1956 13 SI WA NOT_NAMED 1956-02-01 18:00:00 TS -12.7333 132.241 main 0 0 O_____P__PP___ jtwc_sh SH171956 -12.8000 132.300 -1 -12.6600 132.125 -12.6250 132.225 TC -12.7812 132.254 7 2 342
1956032S13133 1956 13 SI WA NOT_NAMED 1956-02-01 21:00:00 TS -12.6461 132.214 main 0 0 P_____P__PP___ SH171956 -12.7075 132.243 -1 -12.5778 132.155 -12.5625 132.212 TC -12.6750 132.217 7 2 344
1956032S13133 1956 13 SI WA NOT_NAMED 1956-02-01 23:00:00 TS -12.5863 132.203 main 0 0 P_____P__PO___ SH171956 -12.6390 132.211 -1 -12.5163 132.189 -12.5208 132.204 TC -12.6000 132.200 7 2 0
1956032S13133 1956 13 SI WA NOT_NAMED 1956-02-01 23:30:00 TS -12.5722 132.202 1001 bom main 0 0 P_____O__PP___ SH171956 -12.6200 132.205 -1 -12.5000 132.200 1001 -12.5104 132.202 TC -12.5798 132.196 7 2 318
1956032S13133 1956 13 SI WA NOT_NAMED 1956-02-02 00:00:00 TS -12.5571 132.201 main 0 0 O_____P__OP___ jtwc_sh SH171956 -12.6000 132.200 -1 -12.4833 132.211 -12.5000 132.200 TC 30 1001 -12.5592 132.192 7 3 0
1956032S13133 1956 13 SI WA NOT_NAMED 1956-02-02 03:00:00 TS -12.4270 132.215 main 0 0 P_____P__PP___ SH171956 -12.4500 132.193 -1 -12.3777 132.295 -12.5314 132.269 TC -12.4304 132.179 7 3 9
1956032S13133 1956 13 SI WA NOT_NAMED 1956-02-02 06:00:00 TS -12.2918 132.244 main 0 0 O_____P__PP___ jtwc_sh SH171956 -12.3000 132.200 -1 -12.2683 132.398 -12.5627 132.337 TC -12.2990 132.179 7 3 14
1956032S13133 1956 13 SI WA NOT_NAMED 1956-02-02 09:00:00 TS -12.1808 132.276 main 10 10 P_____P__PP___ SH171956 -12.1925 132.200 -1 -12.1637 132.514 -12.5941 132.406 TC -12.1745 132.189 7 2 18
1956032S13133 1956 13 SI WA NOT_NAMED 1956-02-02 11:00:00 TS -12.1156 132.299 main 15 15 P_____P__PO___ SH171956 -12.1307 132.200 -1 -12.1009 132.595 -12.6150 132.452 TC -12.1000 132.200 7 2 20
1956032S13133 1956 13 SI WA NOT_NAMED 1956-02-02 12:00:00 TS -12.0827 132.304 main 15 15 O_____P__PP___ jtwc_sh SH171956 -12.1000 132.200 -1 -12.0724 132.635 -12.6254 132.475 TC -12.0584 132.183 7 2 0
1956032S13133 1956 13 SI WA NOT_NAMED 1956-02-02 15:00:00 TS -11.9821 132.316 main 24 24 P_____P__PP___ SH171956 -11.9925 132.193 -1 -12.0030 132.752 -12.6567 132.543 TC -11.9404 132.128 7 2 14
1956032S13133 1956 13 SI WA NOT_NAMED 1956-02-02 18:00:00 TS -11.9029 132.342 main 34 24 O_____P__PP___ jtwc_sh SH171956 -11.9000 132.200 -1 -11.9641 132.859 -12.6880 132.612 TC -11.8475 132.109 7 1 13
1956032S13133 1956 13 SI WA NOT_NAMED 1956-02-02 21:00:00 TS -11.8543 132.365 main 24 21 P_____P__PP___ SH171956 -11.8273 132.168 -1 -11.9641 132.947 -12.7193 132.681 TC -11.7987 132.178 7 1 59
1956032S13133 1956 13 SI WA NOT_NAMED 1956-02-02 23:00:00 TS -11.8487 132.435 main 21 10 P_____P__PO___ SH171956 -11.8025 132.224 -1 -11.9899 132.991 -12.7402 132.727 TC -11.8000 132.300 7 2 88
1956032S13133 1956 13 SI WA NOT_NAMED 1956-02-02 23:30:00 TS -11.8502 132.468 994 bom main 15 15 P_____O__PP___ SH171956 -11.8003 132.257 -1 -12.0000 133.000 994 4 -12.7454 132.738 TC -11.8001 132.357 7 4 95
1956032S13133 1956 13 SI WA NOT_NAMED 1956-02-03 00:00:00 TS -11.8544 132.506 main 15 0 O_____P__PP___ jtwc_sh SH171956 -11.8000 132.300 -1 -12.0159 133.002 -12.7506 132.749 TC -11.8017 132.420 7 7 97
1956032S13133 1956 13 SI WA NOT_NAMED 1956-02-03 03:00:00 TS -11.8988 132.867 main 0 0 P_____P__PP___ SH171956 -11.8053 132.790 -1 -12.1398 133.001 -12.7818 132.818 TC -11.8450 132.889 7 8 101
1956032S13133 1956 13 SI WA NOT_NAMED 1956-02-03 06:00:00 TS -12.0124 133.305 main 0 0 O_____P__PP___ jtwc_sh SH171956 -11.9000 133.400 -1 -12.2971 132.987 -12.8130 132.887 TC -11.9526 133.432 7 9 110
1956032S13133 1956 13 SI WA NOT_NAMED 1956-02-03 09:00:00 TS -12.1952 133.691 main 0 0 P_____P__PP___ SH171956 -12.0900 133.925 -1 -12.4669 132.976 -12.8442 132.956 TC -12.1336 133.939 7 8 121
1956032S13133 1956 13 SI WA NOT_NAMED 1956-02-03 11:00:00 TS -12.3609 133.895 main 0 0 P_____P__PO___ SH171956 -12.2834 134.201 -1 -12.5770 132.978 -12.8650 133.002 TC -12.3000 134.200 7 8 135
1956032S13133 1956 13 SI WA NOT_NAMED 1956-02-03 12:00:00 TS -12.4587 133.966 main 0 0 O_____P__PP___ jtwc_sh SH171956 -12.4000 134.300 -1 -12.6287 132.984 -12.8754 133.025 TC -12.4061 134.281 7 7 152
1956032S13133 1956 13 SI WA NOT_NAMED 1956-02-03 13:30:00 TS -12.6240 134.040 995 bom main 0 0 P_____O__PP___ SH171956 -12.6043 134.395 -1 -12.7000 133.000 995 -12.8910 133.059 TC -12.5875 134.372 7 7 162
1956032S13133 1956 13 SI WA NOT_NAMED 1956-02-03 15:00:00 TS -12.8053 134.080 main 0 0 P_____P__PP___ SH171956 -12.8349 134.433 -1 -12.7622 133.026 995 -12.9066 133.093 TC -12.7892 134.430 7 7 174
1956032S13133 1956 13 SI WA NOT_NAMED 1956-02-03 18:00:00 TS -13.1716 134.090 main 0 0 O_____P__PP___ jtwc_sh SH171956 -13.3000 134.400 -1 -12.8630 133.104 995 -12.9378 133.162 TC -13.2236 134.457 7 7 177
1956032S13133 1956 13 SI WA NOT_NAMED 1956-02-03 21:00:00 TS -13.5284 134.125 main 0 0 P_____P__PP___ SH171956 -13.6875 134.338 -1 -12.9421 133.206 996 -12.9689 133.231 TC -13.6499 134.388 7 7 176
1956032S13133 1956 13 SI WA NOT_NAMED 1956-02-03 23:00:00 TS -13.7731 134.127 main 0 0 P_____P__PO___ SH171956 -13.9057 134.253 -1 -12.9886 133.281 996 -12.9896 133.277 TC -13.9000 134.300 7 9 173
1956032S13133 1956 13 SI WA NOT_NAMED 1956-02-03 23:30:00 TS -13.8794 134.173 997 bom main 0 0 P_____O__PP___ SH171956 -13.9542 134.227 -1 -13.0000 133.300 997 -12.9948 133.289 TC -13.9496 134.282 7 9 0
1956032S13133 1956 13 SI WA NOT_NAMED 1956-02-04 00:00:00 TS -13.9222 134.150 main 0 0 O________OP___ jtwc_sh SH171956 -14.0000 134.200 -1 -13.0000 133.300 TC 35 997 -13.9972 134.262 7 6 199
1956032S13133 1956 13 SI WA NOT_NAMED 1956-02-04 03:00:00 TS -14.2354 134.047 main 0 0 P_________P___ SH171956 -14.2300 134.022 -1 TC -14.2462 134.096 7 6 213
1956032S13133 1956 13 SI WA NOT_NAMED 1956-02-04 06:00:00 TS -14.4145 133.822 main 0 0 O_________P___ jtwc_sh SH171956 -14.4000 133.800 -1 TC -14.4435 133.865 7 6 234
1956032S13133 1956 13 SI WA NOT_NAMED 1956-02-04 09:00:00 TS -14.5732 133.569 main 0 0 P_________P___ SH171956 -14.5575 133.557 -1 TC -14.6048 133.593 7 6 239
1956032S13133 1956 13 SI WA NOT_NAMED 1956-02-04 11:00:00 TS -14.6684 133.391 main 0 0 P_________O___ SH171956 -14.6526 133.386 -1 TC -14.7000 133.400 7 6 240
1956032S13133 1956 13 SI WA NOT_NAMED 1956-02-04 12:00:00 TS -14.7172 133.307 main 0 0 O_________P___ jtwc_sh SH171956 -14.7000 133.300 -1 TC -14.7516 133.321 7 6 237
1956032S13133 1956 13 SI WA NOT_NAMED 1956-02-04 15:00:00 TS -14.8682 133.072 main 0 0 P_________P___ SH171956 -14.8574 133.072 -1 TC -14.8898 133.072 7 6 240
1956032S13133 1956 13 SI WA NOT_NAMED 1956-02-04 18:00:00 TS -15.0036 132.797 main 0 0 O_________P___ jtwc_sh SH171956 -15.0000 132.800 -1 TC -15.0108 132.791 7 7 248
1956032S13133 1956 13 SI WA NOT_NAMED 1956-02-04 21:00:00 TS -15.1080 132.445 main 0 0 P_________P___ SH171956 -15.0999 132.437 -1 TC -15.1241 132.459 7 8 254
1956032S13133 1956 13 SI WA NOT_NAMED 1956-02-04 23:00:00 TS -15.1757 132.168 main 0 0 P_________O___ SH171956 -15.1635 132.153 -1 TC -15.2000 132.200 7 9 256
1956032S13133 1956 13 SI WA NOT_NAMED 1956-02-05 00:00:00 TS -15.2135 132.018 main 0 0 O_________P___ jtwc_sh SH171956 -15.2000 132.000 -1 TC -15.2405 132.055 7 10 254
1956032S13133 1956 13 SI WA NOT_NAMED 1956-02-05 03:00:00 TS -15.3538 131.539 main 0 0 P_________P___ SH171956 -15.3499 131.523 -1 TC -15.3615 131.571 7 10 254
1956032S13133 1956 13 SI WA NOT_NAMED 1956-02-05 06:00:00 TS -15.4947 131.011 main 0 0 O_________P___ jtwc_sh SH171956 -15.5000 131.000 -1 TC -15.4840 131.034 7 11 257
1956032S13133 1956 13 SI WA NOT_NAMED 1956-02-05 09:00:00 TS -15.6037 130.458 main 0 0 P_________P___ SH171956 -15.6000 130.450 -1 TC -15.6110 130.473 7 11 259
1956032S13133 1956 13 SI WA NOT_NAMED 1956-02-05 11:00:00 TS -15.6757 130.087 main 0 0 P_________O___ SH171956 -15.6636 130.080 -1 TC -15.7000 130.100 7 11 258
1956032S13133 1956 13 SI WA NOT_NAMED 1956-02-05 12:00:00 TS -15.7134 129.911 main 0 0 O_________P___ jtwc_sh SH171956 -15.7000 129.900 -1 TC -15.7402 129.932 7 10 255
1956032S13133 1956 13 SI WA NOT_NAMED 1956-02-05 15:00:00 TS -15.8445 129.410 main 0 0 P_________P___ SH171956 -15.8348 129.400 -1 TC -15.8639 129.432 7 10 253
1956032S13133 1956 13 SI WA NOT_NAMED 1956-02-05 18:00:00 TS -16.0008 128.907 main 0 0 O_________P___ jtwc_sh SH171956 -16.0000 128.900 -1 TC -16.0023 128.922 7 11 251
1956032S13133 1956 13 SI WA NOT_NAMED 1956-02-05 21:00:00 TS -16.1792 128.376 main 0 0 P_________P___ SH171956 -16.1848 128.372 -1 TC -16.1681 128.383 7 11 250
1956032S13133 1956 13 SI WA NOT_NAMED 1956-02-05 23:00:00 TS -16.3166 127.998 main 0 0 P_________O___ SH171956 -16.3249 127.997 -1 TC -16.3000 128.000 7 12 249
1956032S13133 1956 13 SI WA NOT_NAMED 1956-02-06 00:00:00 TS -16.3900 127.800 main 0 0 O_________P___ jtwc_sh SH171956 -16.4000 127.800 -1 -16.3699 127.799 7 13 249
1956032S13133 1956 13 SI WA NOT_NAMED 1956-02-06 03:00:00 TS -16.6249 127.169 main 0 0 P_________P___ SH171956 -16.6349 127.172 -1 -16.6051 127.163 7 13 248
1956032S13133 1956 13 SI WA NOT_NAMED 1956-02-06 06:00:00 TS -16.8921 126.496 main 0 0 O_________P___ jtwc_sh SH171956 -16.9000 126.500 -1 -16.8762 126.488 7 14 247
1956032S13133 1956 13 SI WA NOT_NAMED 1956-02-06 09:00:00 TS -17.1732 125.809 main 0 0 P_________P___ SH171956 -17.1697 125.822 -1 -17.1803 125.782 7 15 246
1956032S13133 1956 13 SI WA NOT_NAMED 1956-02-06 11:00:00 TS -17.3867 125.331 main 0 0 P_________O___ SH171956 -17.3800 125.347 -1 -17.4000 125.300 7 15 244
1956032S13133 1956 13 SI WA NOT_NAMED 1956-02-06 12:00:00 TS -17.5093 125.080 main 0 0 O_________P___ jtwc_sh SH171956 -17.5000 125.100 -1 -17.5279 125.039 7 17 241
1956032S13133 1956 13 SI WA NOT_NAMED 1956-02-06 15:00:00 TS -17.9518 124.277 main 0 0 P_________P___ SH171956 -17.9575 124.300 -1 -17.9405 124.229 7 18 240
1956032S13133 1956 13 SI WA NOT_NAMED 1956-02-06 18:00:00 TS -18.3846 123.477 main 0 0 O_________P___ jtwc_sh SH171956 -18.4000 123.500 -1 -18.3539 123.430 7 17 243
1956032S13133 1956 13 SI WA NOT_NAMED 1956-02-06 21:00:00 TS -18.7066 122.719 main 0 0 P_________P___ SH171956 -18.7026 122.725 -1 -18.7147 122.707 7 15 247
1956032S13133 1956 13 SI WA NOT_NAMED 1956-02-06 23:00:00 TS -18.8629 122.288 main 0 0 P_________O___ SH171956 -18.8444 122.282 -1 -18.9000 122.300 7 12 249
1956032S13133 1956 13 SI WA NOT_NAMED 1956-02-07 00:00:00 TS -18.9206 122.115 main 0 0 O_________P___ jtwc_sh SH171956 -18.9000 122.100 -1 -18.9618 122.145 7 8 250
1956032S13133 1956 13 SI WA NOT_NAMED 1956-02-07 03:00:00 TS -19.0506 121.749 main 0 0 P_________P___ SH171956 -19.0371 121.732 -1 -19.0777 121.783 7 6 252
1956032S13133 1956 13 SI WA NOT_NAMED 1956-02-07 06:00:00 TS -19.1054 121.506 main 0 0 O_________P___ jtwc_sh SH171956 -19.1000 121.500 -1 -19.1161 121.519 7 5 262
1956032S13133 1956 13 SI WA NOT_NAMED 1956-02-07 09:00:00 TS -19.1136 121.270 main 15 15 P_________P___ SH171956 -19.1148 121.265 -1 -19.1110 121.281 7 5 270
1956032S13133 1956 13 SI WA NOT_NAMED 1956-02-07 11:00:00 TS -19.1034 121.099 main 30 30 P_________O___ SH171956 -19.1051 121.098 -1 -19.1000 121.100 7 5 273
1956032S13133 1956 13 SI WA NOT_NAMED 1956-02-07 12:00:00 TS -19.0983 120.998 main 38 38 O_________P___ jtwc_sh SH171956 -19.1000 121.000 -1 -19.0957 120.996 7 7 271
1956032S13133 1956 13 SI WA NOT_NAMED 1956-02-07 15:00:00 TS -19.0924 120.630 main 64 64 P_________P___ SH171956 -19.0953 120.633 -1 -19.0895 120.628 7 8 270
1956032S13133 1956 13 SI WA NOT_NAMED 1956-02-07 18:00:00 TS -19.0944 120.198 main 84 84 O_________P___ jtwc_sh SH171956 -19.1000 120.200 -1 -19.0907 120.196 7 9 270
1956032S13133 1956 13 SI WA NOT_NAMED 1956-02-07 21:00:00 NR -19.0959 119.725 main 101 101 __________P___ SH171956 -1 -19.0959 119.725 7 9 270
1956032S13133 1956 13 SI WA NOT_NAMED 1956-02-07 23:00:00 NR -19.1000 119.400 main 109 __________O___ SH171956 -1 -19.1000 119.400 7 9 269

IBTrACS Databaseについて

本データベースは、米国NOAAが公開する1842年以降の世界の熱帯低気圧のベストトラックデータアーカイブInternational Best Track Archive for Climate Stewardship (IBTrACS)を、ウェブで閲覧しやすい形式に変換したものです。

最終更新日:2021-12-06